Mama, Russia
Current Conditions -  °F | °C
As of 11:30 AM on Sunday 23 Nov 2014 (Local Time) from UIAA Reporting Station
Clear Clear  
Wind Chill:   Ceiling: Unl
Heat Index:   Visibility: 6mi
Dew Point: -2°   Wind: 0mph
Humidity: 72%   Direction: NA
Pressure: 30.06"   Gusts: NA
Location:  58.31°N, 112.9°E
Report Text: UIAA 230330Z 00000MPS 9999 SKC M15/M19 Q1018 NOSIG RMK QFE70529CLRD70
Loading
Personal Weather Stations






























Interactive Weather Map New forecast layout! Learn more

10-Day Weather Forecast

Advertisements
Track Severe Weather on mobile